CYTL

Big Trout Lake Airport

Big Trout Lake, Ontario, Canada
METAR CYTL 182300Z AUTO 23006KT 9SM CLR 25/16 A2965 RMK SLP045 DENSITY ALT 2300FT
Observed Flight Rules
Aug-18 @ 23:00 UTC (47 minutes ago) Visual Flight Rules
Wind Visibility Clouds
230° at 6 knots 9 miles
  • Clear skies
Temperatures Readings
Current 25°C / 77°F
Dewpoint 16°C / 61°F
Humidity 57%
Altimeter 29.65" Hg
Pressure 1004.5 hPa
Elevation 224
METAR CYTL 182300Z AUTO 23006KT 9SM CLR 25/16 A2965 RMK SLP045 DENSITY ALT 2300FT
Observed Flight Rules
Aug-18 @ 23:00 UTC
(47 minutes ago)
VFR
Wind Visibility
230° at 6 knots 9 miles
Clouds
  • Clear skies
Temperature Dewpoint
25°C / 77°F 16°C / 61°F
Humidity Altimeter Pressure
57% 29.65" Hg 1004.5 hPa